Time;durP1;ratioP1;P1;durP2;ratioP2;P2;SDS_P1;SDS_P2;PMS_P1;PMS_P2;Temp;Humidity;BMP_temperature;BMP_pressure;BME280_temperature;BME280_humidity;BME280_pressure;Samples;Min_cycle;Max_cycle;Signal;HPM_P1;HPM_P2
2024/01/20 00:00:29;;;;;;;33.55;13.15;;;;;;;0.77;100.00;101967.19;6230449;28;20050;-76
2024/01/20 00:03:30;;;;;;;32.80;14.52;;;;;;;0.83;100.00;101959.50;6229970;28;20060;-76
2024/01/20 00:06:32;;;;;;;39.17;13.85;;;;;;;0.81;100.00;101950.84;6229415;28;20054;-76
2024/01/20 00:09:33;;;;;;;37.60;14.52;;;;;;;0.73;100.00;101958.59;6230406;28;20052;-76
2024/01/20 00:12:35;;;;;;;41.00;14.63;;;;;;;0.80;100.00;101953.44;6229844;28;20049;-77
2024/01/20 00:15:39;;;;;;;29.02;12.90;;;;;;;0.79;100.00;101954.31;6229896;28;20050;-77
2024/01/20 00:18:40;;;;;;;31.88;14.00;;;;;;;0.70;100.00;101949.94;6229895;28;20137;-76
2024/01/20 00:21:41;;;;;;;30.38;14.40;;;;;;;0.68;100.00;101955.09;6229846;28;20371;-76
2024/01/20 00:24:43;;;;;;;34.25;14.77;;;;;;;0.60;100.00;101958.50;6229441;28;20378;-76
2024/01/20 00:27:45;;;;;;;30.45;12.70;;;;;;;0.55;100.00;101944.66;6229377;28;20053;-78
2024/01/20 00:30:47;;;;;;;34.53;13.75;;;;;;;0.62;100.00;101943.84;6229869;28;20046;-77
2024/01/20 00:33:48;;;;;;;34.92;13.80;;;;;;;0.57;100.00;101950.69;6229181;28;20050;-78
2024/01/20 00:36:49;;;;;;;33.92;14.90;;;;;;;0.59;100.00;101941.22;6229146;28;20050;-77
2024/01/20 00:39:51;;;;;;;37.17;13.80;;;;;;;0.60;100.00;101942.97;6229066;28;20057;-76
2024/01/20 00:42:53;;;;;;;38.72;14.27;;;;;;;0.59;100.00;101960.22;6220608;28;20046;-76
2024/01/20 00:45:55;;;;;;;40.47;15.23;;;;;;;0.55;100.00;101955.00;6228704;28;20057;-76
2024/01/20 00:48:56;;;;;;;39.70;16.10;;;;;;;0.61;100.00;101953.31;6221043;28;20080;-76
2024/01/20 00:51:57;;;;;;;36.38;15.27;;;;;;;0.65;100.00;101956.78;6229202;28;20049;-75
2024/01/20 00:54:59;;;;;;;37.75;15.15;;;;;;;0.58;100.00;101960.19;6229012;28;20054;-75
2024/01/20 00:58:01;;;;;;;38.53;15.13;;;;;;;0.64;100.00;101961.09;6227820;28;20064;-76
2024/01/20 01:01:03;;;;;;;33.47;14.13;;;;;;;0.68;100.00;101967.13;6229061;28;20053;-76
2024/01/20 01:04:04;;;;;;;41.25;14.95;;;;;;;0.71;100.00;101975.78;6228528;28;20045;-77
2024/01/20 01:07:05;;;;;;;42.35;15.38;;;;;;;0.64;100.00;101970.59;6228054;28;20056;-76
2024/01/20 01:10:07;;;;;;;33.28;14.65;;;;;;;0.61;100.00;101975.72;6228971;28;20054;-77
2024/01/20 01:13:10;;;;;;;35.50;14.65;;;;;;;0.62;100.00;101982.63;6228337;28;20049;-77
2024/01/20 01:16:13;;;;;;;37.83;15.20;;;;;;;0.56;100.00;101975.69;6227927;28;20050;-76
2024/01/20 01:19:15;;;;;;;44.28;15.57;;;;;;;0.57;100.00;101984.31;6228522;28;20350;-76
2024/01/20 01:22:17;;;;;;;30.95;14.07;;;;;;;0.62;100.00;101985.22;6228690;28;20052;-76
2024/01/20 01:25:19;;;;;;;35.67;15.80;;;;;;;0.62;100.00;101987.81;6228073;28;20075;-77
2024/01/20 01:28:21;;;;;;;43.90;18.40;;;;;;;0.62;100.00;101986.06;6227999;28;20054;-77
2024/01/20 01:31:23;;;;;;;43.00;15.63;;;;;;;0.64;100.00;101988.69;6228255;28;20058;-76
2024/01/20 01:34:24;;;;;;;33.65;14.40;;;;;;;0.57;100.00;102000.69;6228036;28;20057;-75
2024/01/20 01:37:25;;;;;;;37.20;15.57;;;;;;;0.55;100.00;101999.84;6227502;28;20045;-76
2024/01/20 01:40:27;;;;;;;40.13;15.60;;;;;;;0.66;100.00;101985.25;6227878;28;20049;-77
2024/01/20 01:43:29;;;;;;;43.05;15.77;;;;;;;0.74;100.00;102003.41;6227793;28;20057;-76
2024/01/20 01:46:32;;;;;;;43.92;15.85;;;;;;;0.67;100.00;102001.63;6227416;28;20050;-76
2024/01/20 01:49:33;;;;;;;33.97;13.65;;;;;;;0.70;100.00;102005.13;6227815;28;20447;-77
2024/01/20 01:52:34;;;;;;;40.65;15.13;;;;;;;0.69;100.00;102008.56;6227475;28;20050;-75
2024/01/20 01:55:36;;;;;;;41.90;16.33;;;;;;;0.74;100.00;102004.28;6227436;28;20442;-75
2024/01/20 01:58:39;;;;;;;36.30;14.75;;;;;;;0.72;100.00;102005.13;6227552;28;20057;-76
2024/01/20 02:01:40;;;;;;;37.28;14.93;;;;;;;0.70;100.00;102006.84;6227671;28;20050;-76
2024/01/20 02:04:41;;;;;;;38.47;15.95;;;;;;;0.78;100.00;102006.91;6226945;28;20061;-76
2024/01/20 02:07:44;;;;;;;41.88;14.73;;;;;;;0.70;100.00;102015.47;6226284;28;20061;-75
2024/01/20 02:10:47;;;;;;;35.80;14.57;;;;;;;0.69;100.00;102028.41;6226849;28;20060;-76
2024/01/20 02:13:50;;;;;;;47.53;16.80;;;;;;;0.79;100.00;102024.16;6226798;28;20049;-75
2024/01/20 02:16:51;;;;;;;37.70;15.50;;;;;;;0.71;100.00;102024.94;6226750;28;20457;-75
2024/01/20 02:19:53;;;;;;;35.40;12.88;;;;;;;0.73;100.00;102017.22;6226916;28;20057;-76
2024/01/20 02:22:55;;;;;;;39.55;14.93;;;;;;;0.68;100.00;102021.47;6226739;28;20454;-75
2024/01/20 02:25:57;;;;;;;32.63;12.23;;;;;;;0.67;100.00;102027.50;6226400;28;20054;-75
2024/01/20 02:28:58;;;;;;;39.95;13.18;;;;;;;0.63;100.00;102030.91;6226990;28;20049;-74
2024/01/20 02:31:59;;;;;;;38.95;12.48;;;;;;;0.56;100.00;102036.91;6226864;28;20056;-73
2024/01/20 02:35:01;;;;;;;33.13;13.07;;;;;;;0.62;100.00;102032.63;6226602;28;20054;-74
2024/01/20 02:38:04;;;;;;;38.00;13.27;;;;;;;0.61;100.00;102025.75;6225214;28;20354;-75
2024/01/20 02:41:05;;;;;;;34.38;14.48;;;;;;;0.52;100.00;102042.91;6226344;28;20133;-75
2024/01/20 02:44:08;;;;;;;37.55;15.27;;;;;;;0.56;100.00;102040.34;6225260;28;20369;-75
2024/01/20 02:47:09;;;;;;;43.92;14.73;;;;;;;0.61;100.00;102049.03;6227934;28;20049;-75
2024/01/20 02:50:11;;;;;;;46.53;15.52;;;;;;;0.61;100.00;102049.03;6226524;28;20050;-73
2024/01/20 02:53:13;;;;;;;41.38;13.48;;;;;;;0.70;100.00;102053.41;6245507;28;20042;-75
2024/01/20 02:56:15;;;;;;;39.15;13.57;;;;;;;0.62;100.00;102050.75;6250607;28;20140;-74
2024/01/20 02:59:16;;;;;;;38.65;13.07;;;;;;;0.61;100.00;102053.31;6250781;28;20049;-75
2024/01/20 03:02:17;;;;;;;35.85;14.20;;;;;;;0.60;100.00;102047.28;6250863;28;20422;-75
2024/01/20 03:05:18;;;;;;;38.20;13.65;;;;;;;0.57;100.00;102043.81;6271657;23;20349;-74
2024/01/20 03:08:21;;;;;;;41.25;14.38;;;;;;;0.59;100.00;102050.75;6250229;28;20045;-72
2024/01/20 03:11:22;;;;;;;33.42;12.65;;;;;;;0.60;100.00;102057.63;6250549;28;20354;-72
2024/01/20 03:14:24;;;;;;;30.98;12.27;;;;;;;0.56;100.00;102049.84;6250445;28;20045;-72
2024/01/20 03:17:25;;;;;;;41.47;13.52;;;;;;;0.49;100.00;102047.19;6247414;28;20364;-72
2024/01/20 03:20:26;;;;;;;40.22;14.38;;;;;;;0.58;100.00;102056.75;6250029;28;20354;-72
2024/01/20 03:23:29;;;;;;;41.83;12.90;;;;;;;0.60;100.00;102052.47;6250326;28;20048;-72
2024/01/20 03:26:30;;;;;;;35.67;12.93;;;;;;;0.60;100.00;102060.22;6249518;28;20071;-72
2024/01/20 03:29:32;;;;;;;33.08;12.95;;;;;;;0.64;100.00;102055.94;6250521;28;20060;-72
2024/01/20 03:32:33;;;;;;;29.55;12.48;;;;;;;0.76;100.00;102061.22;6248985;28;20343;-72
2024/01/20 03:35:34;;;;;;;35.22;12.38;;;;;;;0.70;100.00;102061.16;6249734;28;20081;-73
2024/01/20 03:38:37;;;;;;;37.80;12.43;;;;;;;0.68;100.00;102071.50;6249746;28;20434;-72
2024/01/20 03:41:38;;;;;;;40.13;12.65;;;;;;;0.79;100.00;102057.78;6250448;28;20045;-74
2024/01/20 03:44:40;;;;;;;36.65;12.93;;;;;;;0.79;100.00;102061.25;6249239;28;20406;-72
2024/01/20 03:47:41;;;;;;;32.00;13.15;;;;;;;0.83;100.00;102069.91;6249935;28;20056;-73
2024/01/20 03:50:42;;;;;;;34.63;12.48;;;;;;;0.75;100.00;102062.06;6250256;28;20057;-72
2024/01/20 03:53:45;;;;;;;34.25;13.07;;;;;;;0.68;100.00;102073.19;6250086;28;20049;-71
2024/01/20 03:56:47;;;;;;;41.70;12.65;;;;;;;0.72;100.00;102081.00;6249693;28;20046;-73
2024/01/20 03:59:48;;;;;;;38.38;13.48;;;;;;;0.74;100.00;102075.88;6249956;28;20434;-72
2024/01/20 04:02:49;;;;;;;38.40;14.43;;;;;;;0.78;100.00;102081.94;6249713;28;20045;-72
2024/01/20 04:05:51;;;;;;;26.23;11.63;;;;;;;0.76;100.00;102082.75;6249548;28;20136;-71
2024/01/20 04:08:53;;;;;;;33.95;12.75;;;;;;;0.68;100.00;102080.97;6249733;28;20054;-72
2024/01/20 04:11:54;;;;;;;38.85;13.02;;;;;;;0.66;100.00;102083.56;6250057;28;20450;-72
2024/01/20 04:14:56;;;;;;;45.10;13.18;;;;;;;0.68;100.00;102084.44;6249793;28;20053;-72
2024/01/20 04:17:57;;;;;;;43.78;13.88;;;;;;;0.63;100.00;102093.84;6249322;28;20133;-72
2024/01/20 04:20:59;;;;;;;38.90;13.80;;;;;;;0.65;100.00;102086.13;6249721;28;20350;-72
2024/01/20 04:24:01;;;;;;;44.40;13.27;;;;;;;0.65;100.00;102097.34;6249480;28;20056;-72
2024/01/20 04:27:03;;;;;;;39.08;12.88;;;;;;;0.58;100.00;102100.72;6249584;28;20049;-74
2024/01/20 04:30:06;;;;;;;39.95;12.73;;;;;;;0.54;100.00;102111.88;6249717;28;20449;-72
2024/01/20 04:33:07;;;;;;;42.30;13.23;;;;;;;0.50;100.00;102115.31;6251995;28;20056;-72
2024/01/20 04:36:08;;;;;;;38.92;12.95;;;;;;;0.54;100.00;102113.59;6253958;28;20056;-72
2024/01/20 04:39:11;;;;;;;33.33;11.63;;;;;;;0.55;100.00;102112.78;6253396;28;20052;-72
2024/01/20 04:42:13;;;;;;;35.35;11.98;;;;;;;0.52;100.00;102103.25;6253664;28;20342;-73
2024/01/20 04:45:15;;;;;;;46.53;12.23;;;;;;;0.45;100.00;102111.78;6253169;28;20056;-71
2024/01/20 04:48:17;;;;;;;41.83;13.57;;;;;;;0.52;100.00;102111.00;6253428;28;20050;-72
2024/01/20 04:51:18;;;;;;;40.72;12.85;;;;;;;0.51;100.00;102119.63;6253587;28;20494;-72
2024/01/20 04:54:21;;;;;;;40.85;12.32;;;;;;;0.47;100.00;102118.72;6253388;28;20050;-72
2024/01/20 04:57:22;;;;;;;32.05;11.95;;;;;;;0.50;100.00;102134.28;6253246;28;20056;-72
2024/01/20 05:00:24;;;;;;;25.95;12.07;;;;;;;0.45;100.00;102135.91;6253871;28;20054;-72
2024/01/20 05:03:25;;;;;;;34.47;11.45;;;;;;;0.43;100.00;102134.19;6252955;28;20045;-72
2024/01/20 05:06:27;;;;;;;39.20;13.23;;;;;;;0.41;100.00;102143.63;6252404;28;20071;-72
2024/01/20 05:09:29;;;;;;;27.35;12.15;;;;;;;0.34;100.00;102144.44;6253482;28;20057;-73
2024/01/20 05:12:31;;;;;;;38.22;13.68;;;;;;;0.36;100.00;102145.31;6253006;28;20056;-72
2024/01/20 05:15:32;;;;;;;34.10;11.38;;;;;;;0.43;100.00;102149.69;6253605;28;20076;-72
2024/01/20 05:18:34;;;;;;;36.75;13.32;;;;;;;0.34;100.00;102157.34;6251686;28;20077;-73
2024/01/20 05:21:37;;;;;;;41.85;13.95;;;;;;;0.24;100.00;102166.72;6253117;28;20041;-71
2024/01/20 05:24:40;;;;;;;47.90;13.65;;;;;;;0.31;100.00;102162.47;6252577;28;20060;-72
2024/01/20 05:27:41;;;;;;;34.85;12.25;;;;;;;0.34;100.00;102157.34;6252681;28;20056;-73
2024/01/20 05:30:43;;;;;;;29.58;11.48;;;;;;;0.27;100.00;102165.88;6253045;28;20061;-72
2024/01/20 05:33:45;;;;;;;33.92;12.50;;;;;;;0.27;100.00;102164.16;6252544;28;20128;-73
2024/01/20 05:36:46;;;;;;;34.92;12.23;;;;;;;0.21;100.00;102164.09;6252083;28;20053;-72
2024/01/20 05:39:49;;;;;;;31.95;12.15;;;;;;;0.35;100.00;102177.19;6252697;28;20354;-72
2024/01/20 05:42:50;;;;;;;34.15;11.60;;;;;;;0.29;100.00;102175.41;6252176;28;20104;-72
2024/01/20 05:45:52;;;;;;;34.70;12.43;;;;;;;0.33;100.00;102182.34;6252220;28;20049;-72
2024/01/20 05:48:53;;;;;;;31.42;13.55;;;;;;;0.35;100.00;102193.56;6252607;28;20053;-72
2024/01/20 05:51:54;;;;;;;43.22;13.07;;;;;;;0.25;100.00;102195.16;6252347;28;20077;-72
2024/01/20 05:54:57;;;;;;;33.35;14.13;;;;;;;0.27;100.00;102177.09;6252083;28;20448;-72
2024/01/20 05:57:59;;;;;;;37.92;12.85;;;;;;;0.23;100.00;102189.13;6251750;28;20049;-72
2024/01/20 06:01:00;;;;;;;34.50;12.32;;;;;;;0.32;100.00;102182.31;6252480;28;20056;-72
2024/01/20 06:04:03;;;;;;;41.40;14.00;;;;;;;0.33;100.00;102178.91;6251541;28;20045;-73
2024/01/20 06:07:05;;;;;;;37.53;12.05;;;;;;;0.32;100.00;102179.72;6251402;28;20053;-72
2024/01/20 06:10:08;;;;;;;33.33;12.65;;;;;;;0.30;100.00;102182.31;6252099;28;20438;-72
2024/01/20 06:13:10;;;;;;;41.83;13.05;;;;;;;0.34;100.00;102180.63;6251564;28;20045;-72
2024/01/20 06:16:12;;;;;;;37.78;13.05;;;;;;;0.25;100.00;102190.00;6250915;28;20453;-71
2024/01/20 06:19:13;;;;;;;34.10;13.18;;;;;;;0.19;100.00;102184.78;6251015;28;20041;-72
2024/01/20 06:22:15;;;;;;;36.55;13.07;;;;;;;0.20;100.00;102202.00;6251540;28;20041;-72
2024/01/20 06:25:18;;;;;;;37.00;12.52;;;;;;;0.23;100.00;102201.19;6250843;28;20048;-72
2024/01/20 06:28:19;;;;;;;37.47;13.18;;;;;;;0.22;100.00;102215.81;6251187;28;20050;-72
2024/01/20 06:31:24;;;;;;;33.17;12.45;;;;;;;0.29;100.00;102211.59;6251517;28;20450;-72
2024/01/20 06:34:26;;;;;;;40.75;13.02;;;;;;;0.35;100.00;102210.81;6251221;28;20450;-72
2024/01/20 06:37:27;;;;;;;32.15;11.35;;;;;;;0.34;100.00;102215.09;6250671;28;20056;-72
2024/01/20 06:40:30;;;;;;;40.42;13.75;;;;;;;0.36;100.00;102212.53;6250793;28;20045;-74
2024/01/20 06:43:31;;;;;;;38.35;13.23;;;;;;;0.33;100.00;102210.78;6250687;28;20048;-72
2024/01/20 06:46:32;;;;;;;31.55;12.88;;;;;;;0.29;100.00;102214.19;6250570;28;20183;-72
2024/01/20 06:49:34;;;;;;;30.00;13.45;;;;;;;0.35;100.00;102218.56;6251120;28;20058;-72
2024/01/20 06:52:35;;;;;;;44.83;14.20;;;;;;;0.38;100.00;102224.63;6251526;28;20045;-72
2024/01/20 06:55:38;;;;;;;49.97;14.80;;;;;;;0.27;100.00;102239.13;6251960;28;20573;-74
2024/01/20 06:58:40;;;;;;;29.75;12.82;;;;;;;0.16;100.00;102230.38;6251047;28;20050;-72
2024/01/20 07:01:41;;;;;;;39.88;14.20;;;;;;;0.16;100.00;102233.84;6251089;28;20052;-72
2024/01/20 07:04:42;;;;;;;29.33;12.50;;;;;;;0.16;100.00;102236.41;6250374;28;20057;-72
2024/01/20 07:07:44;;;;;;;37.22;14.25;;;;;;;0.18;100.00;102239.91;6250299;28;20132;-72
2024/01/20 07:10:46;;;;;;;34.08;11.43;;;;;;;0.05;100.00;102242.31;6250718;28;20053;-71
2024/01/20 07:13:48;;;;;;;44.38;14.25;;;;;;;0.09;100.00;102251.81;6250326;28;20331;-71
2024/01/20 07:16:49;;;;;;;35.17;13.07;;;;;;;0.17;100.00;102248.47;6250061;28;20350;-71
2024/01/20 07:19:50;;;;;;;38.90;12.05;;;;;;;0.22;100.00;102243.38;6250326;28;20045;-72
2024/01/20 07:22:52;;;;;;;40.30;12.13;;;;;;;0.22;100.00;102244.25;6250439;28;20057;-73
2024/01/20 07:25:54;;;;;;;32.58;12.45;;;;;;;0.24;100.00;102250.31;6249949;28;20442;-73
2024/01/20 07:28:56;;;;;;;30.25;12.80;;;;;;;0.17;100.00;102250.19;6249552;28;20100;-73
2024/01/20 07:31:57;;;;;;;38.50;13.02;;;;;;;0.11;100.00;102256.16;6249808;28;20358;-71
2024/01/20 07:34:58;;;;;;;39.53;12.50;;;;;;;0.21;100.00;102245.09;6249882;28;20056;-73
2024/01/20 07:38:00;;;;;;;40.13;15.50;;;;;;;0.19;100.00;102243.34;6248556;28;20072;-73
2024/01/20 07:41:03;;;;;;;42.10;13.35;;;;;;;0.22;100.00;102252.00;6249924;28;20054;-72
2024/01/20 07:44:04;;;;;;;37.15;13.98;;;;;;;0.22;100.00;102257.16;6249665;28;20045;-71
2024/01/20 07:47:06;;;;;;;31.38;12.02;;;;;;;0.23;100.00;102273.56;6249927;28;20053;-72
2024/01/20 07:50:08;;;;;;;32.45;11.90;;;;;;;0.19;100.00;102283.00;6250168;28;20059;-72
2024/01/20 07:53:09;;;;;;;42.67;14.02;;;;;;;0.20;100.00;102279.56;6249715;28;20133;-72
2024/01/20 07:56:14;;;;;;;34.90;13.85;;;;;;;0.17;100.00;102289.84;6249630;28;20320;-73
2024/01/20 07:59:16;;;;;;;34.35;13.20;;;;;;;0.21;100.00;102294.22;6250003;28;20143;-73
2024/01/20 08:02:18;;;;;;;33.38;13.00;;;;;;;0.17;100.00;102304.50;6250088;28;20061;-72
2024/01/20 08:05:19;;;;;;;33.83;13.07;;;;;;;0.08;100.00;102306.94;6249564;28;20060;-72
2024/01/20 08:08:20;;;;;;;33.22;12.05;;;;;;;0.20;100.00;102304.53;6252708;28;20465;-72
2024/01/20 08:11:23;;;;;;;46.80;14.52;;;;;;;0.32;100.00;102321.94;6254717;28;20060;-72
2024/01/20 08:14:24;;;;;;;38.55;11.60;;;;;;;0.34;100.00;102318.53;6254709;28;20041;-72
2024/01/20 08:17:26;;;;;;;36.20;12.70;;;;;;;0.39;100.00;102323.75;6254272;28;20049;-72
2024/01/20 08:20:27;;;;;;;33.53;12.57;;;;;;;0.37;100.00;102328.06;6254764;28;20057;-73
2024/01/20 08:23:28;;;;;;;42.00;12.85;;;;;;;0.46;100.00;102317.84;6252162;28;20052;-73
2024/01/20 08:26:32;;;;;;;43.25;12.65;;;;;;;0.41;100.00;102322.94;6250468;28;20350;-73
2024/01/20 08:29:33;;;;;;;39.75;12.30;;;;;;;0.41;100.00;102322.94;6250712;28;20041;-73
2024/01/20 08:32:34;;;;;;;41.15;12.23;;;;;;;0.44;100.00;102320.38;6252943;28;20074;-73
2024/01/20 08:35:36;;;;;;;34.42;12.13;;;;;;;0.50;100.00;102324.78;6254167;28;20049;-72
2024/01/20 08:38:37;;;;;;;35.85;13.02;;;;;;;0.46;100.00;102329.06;6252691;28;20064;-72
2024/01/20 08:41:40;;;;;;;28.25;11.20;;;;;;;0.54;100.00;102321.38;6248384;28;20046;-72
2024/01/20 08:44:41;;;;;;;39.97;12.90;;;;;;;0.46;100.00;102330.78;6250942;28;20045;-72
2024/01/20 08:47:42;;;;;;;33.42;11.82;;;;;;;0.54;100.00;102326.53;6251534;28;20057;-72
2024/01/20 08:50:44;;;;;;;43.40;12.75;;;;;;;0.59;100.00;102342.13;6253488;28;20350;-72
2024/01/20 08:53:45;;;;;;;36.30;11.55;;;;;;;0.65;100.00;102325.00;6253598;28;20049;-71
2024/01/20 08:56:49;;;;;;;39.35;12.38;;;;;;;0.70;100.00;102320.75;6253250;28;20053;-71
2024/01/20 08:59:51;;;;;;;36.92;12.68;;;;;;;0.64;100.00;102324.97;6253522;28;20049;-72
2024/01/20 09:02:52;;;;;;;33.95;11.32;;;;;;;0.71;100.00;102337.13;6252102;28;20045;-72
2024/01/20 09:05:53;;;;;;;53.00;13.80;;;;;;;0.79;100.00;102335.50;6252627;28;20050;-76
2024/01/20 09:08:55;;;;;;;36.97;11.98;;;;;;;0.77;100.00;102334.59;6253595;28;20056;-77
2024/01/20 09:11:57;;;;;;;32.88;12.43;;;;;;;0.64;100.00;102346.53;6252533;28;20057;-76
2024/01/20 09:14:59;;;;;;;33.20;11.88;;;;;;;0.70;100.00;102362.13;6252916;28;20430;-76
2024/01/20 09:18:00;;;;;;;34.15;13.57;;;;;;;0.69;100.00;102373.34;6243629;28;20056;-77
2024/01/20 09:21:01;;;;;;;34.20;12.55;;;;;;;0.72;100.00;102357.84;6241638;28;20050;-75
2024/01/20 09:24:03;;;;;;;36.97;11.80;;;;;;;0.76;100.00;102367.38;6238570;28;20041;-75
2024/01/20 09:27:06;;;;;;;32.03;12.40;;;;;;;0.81;100.00;102369.16;6252753;28;20054;-76
2024/01/20 09:30:08;;;;;;;35.30;13.38;;;;;;;0.95;100.00;102357.25;6252073;28;20049;-75
2024/01/20 09:33:10;;;;;;;37.45;13.25;;;;;;;0.96;100.00;102359.88;6252046;28;20053;-75
2024/01/20 09:36:41;;;;;;;35.70;11.35;;;;;;;0.84;100.00;102364.03;6348688;27;20319;-76
2024/01/20 09:39:42;;;;;;;37.13;12.90;;;;;;;0.76;100.00;102364.78;6347037;28;20050;-76
2024/01/20 09:42:44;;;;;;;36.88;11.77;;;;;;;0.78;100.00;102382.94;6346818;28;20044;-76
2024/01/20 09:45:46;;;;;;;45.35;14.88;;;;;;;0.81;100.00;102371.75;6321380;28;20048;-75
2024/01/20 09:48:54;;;;;;;34.13;11.85;;;;;;;0.77;100.00;102370.84;6321677;28;20055;-77
2024/01/20 09:52:04;;;;;;;41.55;12.75;;;;;;;0.85;100.00;102371.81;6321707;28;20135;-77
2024/01/20 09:55:17;;;;;;;42.33;13.70;;;;;;;1.08;100.00;102366.91;6321222;28;20456;-77
2024/01/20 09:58:19;;;;;;;35.80;11.38;;;;;;;1.02;100.00;102366.84;6321254;28;20052;-75
2024/01/20 10:01:21;;;;;;;46.00;12.38;;;;;;;0.92;100.00;102373.63;6323663;28;20153;-75
2024/01/20 10:04:27;;;;;;;31.92;11.45;;;;;;;0.96;100.00;102375.41;6327547;28;20041;-76
2024/01/20 10:07:31;;;;;;;37.42;12.68;;;;;;;1.19;100.00;102378.28;6320348;28;20052;-76
2024/01/20 10:10:33;;;;;;;31.90;11.40;;;;;;;1.09;100.00;102376.44;6321061;28;20048;-75
2024/01/20 10:13:34;;;;;;;32.75;11.25;;;;;;;1.09;100.00;102388.50;6320918;28;20048;-75
2024/01/20 10:16:40;;;;;;;30.63;11.60;;;;;;;1.28;100.00;102385.28;6320279;28;20059;-75
2024/01/20 10:19:41;;;;;;;39.67;12.23;;;;;;;1.26;100.00;102387.84;6320637;28;20127;-75
2024/01/20 10:22:44;;;;;;;35.13;12.27;;;;;;;1.43;100.00;102384.59;6320545;28;20349;-75
2024/01/20 10:25:45;;;;;;;40.35;11.70;;;;;;;1.53;100.00;102389.00;6320559;28;20041;-76
2024/01/20 10:28:46;;;;;;;30.90;11.30;;;;;;;1.46;100.00;102376.84;6320832;28;20048;-76
2024/01/20 10:31:48;;;;;;;29.63;10.90;;;;;;;1.50;100.00;102386.41;6320704;28;20051;-75
2024/01/20 10:34:49;;;;;;;40.78;11.43;;;;;;;1.62;100.00;102386.50;6320163;28;20421;-75
2024/01/20 10:37:57;;;;;;;29.55;10.65;;;;;;;1.60;100.00;102377.84;6320508;28;20051;-76
2024/01/20 10:40:58;;;;;;;32.20;10.63;;;;;;;1.63;100.00;102389.97;6317151;28;20049;-75
2024/01/20 10:44:02;;;;;;;30.52;11.32;;;;;;;1.72;100.00;102390.91;6319899;28;20048;-75
2024/01/20 10:47:11;;;;;;;35.42;10.90;;;;;;;1.68;100.00;102396.06;6316455;28;20063;-75
2024/01/20 10:50:12;;;;;;;36.72;11.98;;;;;;;1.65;100.00;102391.72;6300150;28;20053;-75
2024/01/20 10:53:15;;;;;;;28.05;10.63;;;;;;;1.78;100.00;102393.59;6308380;28;20348;-76
2024/01/20 10:56:17;;;;;;;36.08;10.77;;;;;;;1.84;100.00;102391.91;6306314;28;20055;-76
2024/01/20 10:59:20;;;;;;;33.10;11.57;;;;;;;1.79;100.00;102397.03;6307595;28;20369;-76
2024/01/20 11:02:23;;;;;;;27.25;10.48;;;;;;;1.88;100.00;102404.91;6303005;28;20048;-78
2024/01/20 11:05:26;;;;;;;34.50;12.55;;;;;;;2.06;100.00;102418.88;6303260;28;20052;-76
2024/01/20 11:08:29;;;;;;;28.30;10.70;;;;;;;1.87;100.00;102404.91;6308179;28;20437;-77
2024/01/20 11:11:34;;;;;;;30.08;12.15;;;;;;;1.89;100.00;102409.22;6303100;28;20072;-75
2024/01/20 11:14:36;;;;;;;31.50;11.40;;;;;;;1.98;100.00;102413.63;6302392;28;20044;-75
2024/01/20 11:17:38;;;;;;;36.08;11.57;;;;;;;1.91;100.00;102404.06;6304759;28;20356;-76
2024/01/20 11:20:39;;;;;;;32.20;11.57;;;;;;;2.05;100.00;102411.97;6303785;28;20052;-75
2024/01/20 11:23:45;;;;;;;31.05;11.50;;;;;;;1.97;100.00;102404.13;6306071;28;20045;-74
2024/01/20 11:26:46;;;;;;;34.92;11.70;;;;;;;2.12;100.00;102409.41;6303856;28;20056;-75
2024/01/20 11:29:48;;;;;;;34.45;12.27;;;;;;;2.12;100.00;102413.75;6304058;28;20052;-74
2024/01/20 11:32:50;;;;;;;33.03;11.38;;;;;;;2.26;100.00;102399.16;6302204;28;20074;-73
2024/01/20 11:35:52;;;;;;;31.30;11.50;;;;;;;2.33;100.00;102413.94;6303094;28;20052;-74
2024/01/20 11:38:57;;;;;;;40.30;12.00;;;;;;;2.25;100.00;102408.66;6303089;28;20171;-75
2024/01/20 11:42:01;;;;;;;26.10;11.50;;;;;;;2.30;100.00;102413.88;6302402;28;20052;-75
2024/01/20 11:45:04;;;;;;;30.40;11.07;;;;;;;2.22;100.00;102407.78;6301895;28;20123;-74
2024/01/20 11:48:06;;;;;;;36.00;11.70;;;;;;;2.28;100.00;102411.28;6306147;28;20133;-74
2024/01/20 11:51:08;;;;;;;33.15;11.80;;;;;;;2.10;100.00;102403.38;6302109;28;20053;-75
2024/01/20 11:54:10;;;;;;;37.72;12.18;;;;;;;2.02;100.00;102405.88;6301874;28;20140;-74
2024/01/20 11:57:19;;;;;;;33.22;11.80;;;;;;;1.76;100.00;102409.97;6300879;28;20044;-75
2024/01/20 12:00:21;;;;;;;32.42;12.50;;;;;;;1.65;100.00;102411.59;6301684;28;20052;-75
2024/01/20 12:03:22;;;;;;;38.13;11.93;;;;;;;1.67;100.00;102420.22;6301616;28;20054;-74
2024/01/20 12:06:24;;;;;;;37.70;11.27;;;;;;;1.66;100.00;102408.13;6301067;28;20041;-73
2024/01/20 12:09:27;;;;;;;32.88;11.13;;;;;;;1.47;100.00;102413.13;6301739;28;20048;-74
2024/01/20 12:12:28;;;;;;;34.38;11.93;;;;;;;1.53;100.00;102415.78;6294164;28;20052;-75
2024/01/20 12:15:33;;;;;;;39.92;12.40;;;;;;;1.60;100.00;102410.69;6288122;28;20045;-76
2024/01/20 12:18:36;;;;;;;32.88;12.88;;;;;;;1.57;100.00;102406.31;6300958;28;20084;-77
2024/01/20 12:21:37;;;;;;;36.30;10.98;;;;;;;1.69;100.00;102406.44;6300624;28;20349;-75
2024/01/20 12:24:46;;;;;;;37.10;13.20;;;;;;;1.65;100.00;102409.88;6300965;28;20049;-74
2024/01/20 12:27:49;;;;;;;36.25;13.27;;;;;;;1.65;100.00;102402.09;6300501;28;20048;-76
2024/01/20 12:30:51;;;;;;;35.10;11.82;;;;;;;1.85;100.00;102399.69;6289306;28;20045;-75
2024/01/20 12:33:52;;;;;;;35.38;12.05;;;;;;;1.84;100.00;102400.53;6275711;28;20060;-75
2024/01/20 12:36:54;;;;;;;31.35;12.10;;;;;;;1.88;100.00;102393.66;6275701;28;20049;-75
2024/01/20 12:39:56;;;;;;;36.88;11.75;;;;;;;1.93;100.00;102391.97;6275919;28;20053;-76
2024/01/20 12:42:58;;;;;;;37.83;13.35;;;;;;;1.93;100.00;102390.25;6275890;28;20053;-75
2024/01/20 12:45:59;;;;;;;35.63;11.55;;;;;;;1.88;100.00;102396.25;6275171;28;20049;-77
2024/01/20 12:49:01;;;;;;;36.03;12.50;;;;;;;1.94;100.00;102393.72;6301976;28;20433;-76
2024/01/20 12:52:02;;;;;;;35.80;12.05;;;;;;;1.88;100.00;102397.13;6302776;28;20048;-76
2024/01/20 12:55:07;;;;;;;39.25;12.52;;;;;;;1.73;100.00;102382.31;6299959;28;20048;-75
2024/01/20 12:58:09;;;;;;;35.72;12.13;;;;;;;1.81;100.00;102390.13;6299933;28;20361;-75
2024/01/20 13:01:10;;;;;;;35.80;10.57;;;;;;;1.84;100.00;102403.13;6306745;28;20429;-75
2024/01/20 13:04:12;;;;;;;34.70;13.15;;;;;;;1.88;100.00;102399.72;6306831;28;20436;-74
2024/01/20 13:07:13;;;;;;;40.15;12.88;;;;;;;1.86;100.00;102404.00;6299436;28;20048;-74
2024/01/20 13:10:16;;;;;;;33.83;11.68;;;;;;;1.77;100.00;102397.03;6299981;28;20349;-76
2024/01/20 13:13:21;;;;;;;35.47;12.25;;;;;;;1.81;100.00;102395.31;6299752;28;20527;-74
2024/01/20 13:16:22;;;;;;;33.83;11.50;;;;;;;1.84;100.00;102397.09;6301769;28;20044;-76
2024/01/20 13:19:23;;;;;;;34.20;12.02;;;;;;;1.97;100.00;102401.53;6299810;28;20049;-73
2024/01/20 13:22:26;;;;;;;36.03;11.45;;;;;;;2.05;100.00;102404.19;6299683;28;20056;-75
2024/01/20 13:25:29;;;;;;;28.67;11.02;;;;;;;2.08;100.00;102396.41;6300099;28;20044;-75
2024/01/20 13:28:33;;;;;;;31.80;11.63;;;;;;;2.07;100.00;102390.38;6299490;28;20052;-76
2024/01/20 13:31:35;;;;;;;32.28;10.90;;;;;;;2.20;100.00;102391.34;6300167;28;20075;-74
2024/01/20 13:34:36;;;;;;;39.88;11.57;;;;;;;2.28;100.00;102398.31;6298698;28;20441;-74
2024/01/20 13:37:38;;;;;;;42.03;12.93;;;;;;;2.05;100.00;102401.59;6285464;28;20094;-75
2024/01/20 13:40:40;;;;;;;29.77;10.30;;;;;;;2.02;100.00;102407.63;6287449;28;20041;-76
2024/01/20 13:43:43;;;;;;;34.75;10.32;;;;;;;1.96;100.00;102417.94;6286032;28;20084;-77
2024/01/20 13:46:44;;;;;;;23.52;10.55;;;;;;;2.11;100.00;102419.78;6286259;28;20041;-76